Latest Coastal Weather Observations for Horn Island

IDQ60701

Issued at 5:21 pm EST Saturday 18 April 2015 (issued every 10 minutes, with the page automatically refreshed every 10 minutes)

About coastal observations | Map of coastal stations | Coastal observations for QLD | Marine services | Other Formats
Station Details ID: 027058 Name: HORN ISLAND Lat: -10.58 Lon: 142.29 Height: 4.0 m
Data from the previous 72 hours. | See also: Recent months at Horn Island
Date/Time
EST
Temp

°C
Wind Pressure Rain
since 9am
mm
Weather Cloud Vis
km
Sea
Height
m
Swell
Dir
 
Speed
knots
Gust
knots
hPa Trend Height
m
Period
s
Dir
18/05:00pm 29.5 NE 7 10 1008.4 - 0.0 - - 10 - - - -
18/04:30pm 30.0 NNE 7 9 1008.5 - 0.0 - - 10 - - - -
18/04:00pm 29.6 E 6 9 1008.5 - 0.0 - Partly cloudy 10 - - - -
18/03:30pm 29.3 E 7 10 1008.7 - 0.0 - Partly cloudy 10 - - - -
18/03:00pm 28.9 E 7 10 1008.7 - 0.0 - Partly cloudy 10 - - - -
18/02:30pm 29.4 ENE 8 12 1008.8 - 0.0 - Partly cloudy 10 - - - -
18/02:00pm 30.5 E 9 13 1009.1 - 0.0 - - 10 - - - -
18/01:30pm 30.0 E 8 11 1009.7 - 0.0 - Partly cloudy 10 - - - -
18/01:00pm 30.0 E 9 12 1010.2 - 0.0 - Partly cloudy 10 - - - -
18/12:30pm 30.4 E 9 14 1010.4 - 0.0 - Partly cloudy 10 - - - -
18/12:00pm 30.4 E 11 15 1010.9 - 0.0 - Partly cloudy 10 - - - -
18/11:30am 30.5 E 10 14 1011.3 - 0.0 - Partly cloudy 10 - - - -
18/11:00am 30.9 E 9 13 1011.9 - 0.0 - - 10 - - - -
18/10:30am 29.6 ESE 10 14 1012.2 - 0.0 - - 10 - - - -
18/10:00am 29.9 E 9 13 1012.4 - 0.0 - Partly cloudy 10 - - - -
18/09:30am 29.0 ESE 10 12 1012.3 - 0.0 - Partly cloudy 10 - - - -
18/09:00am 28.5 SSE 7 10 1012.1 - 0.2 - Mostly clear 10 - - - -
18/08:30am 28.8 SE 8 11 1012.1 - 0.2 - Partly cloudy 10 - - - -
18/08:00am 27.8 SE 5 7 1012.0 - 0.2 - Partly cloudy 10 - - - -
18/07:30am 26.1 SSE 2 4 1011.7 - 0.2 - - 10 - - - -
18/07:00am 25.7 SSE 3 4 1011.2 - 0.2 - - 10 - - - -
18/06:30am 26.1 SSE 5 7 1010.7 - 0.2 - - 10 - - - -
18/06:00am 26.3 SE 5 7 1010.5 - 0.2 - Mostly clear 10 - - - -
18/05:30am 26.6 ESE 7 9 1010.4 - 0.2 - Partly cloudy 10 - - - -
18/05:00am 26.6 ESE 8 10 1010.2 - 0.2 - - 10 - - - -
18/04:30am 26.3 ESE 6 9 1010.2 - 0.2 - - 10 - - - -
18/04:00am 26.4 SE 8 11 1010.0 - 0.2 - - 10 - - - -
18/03:30am 26.6 SE 9 11 1010.2 - 0.2 - - 10 - - - -
18/03:00am 26.6 SE 7 10 1010.1 - 0.2 - - 10 - - - -
18/02:30am 26.9 SE 11 14 1010.3 - 0.2 - - 10 - - - -
18/02:00am 26.9 SE 12 17 1010.6 - 0.2 - - 10 - - - -
18/01:30am 26.9 ESE 10 15 1010.9 - 0.2 - - 10 - - - -
18/01:00am 26.8 ESE 10 14 1011.2 - 0.2 - - 10 - - - -
18/12:30am 26.6 SE 9 11 1011.4 - 0.2 - - 10 - - - -
18/12:00am 26.3 SE 7 9 1011.5 - 0.2 - Mostly clear 10 - - - -
 
Date/Time
EST
Temp

°C
Wind Pressure Rain
since 9am
mm
Weather Cloud Vis
km
Sea
Height
m
Swell
Dir
 
Speed
knots
Gust
knots
hPa Trend Height
m
Period
s
Dir
17/11:30pm 26.2 SSE 7 12 1011.8 - 0.2 - Partly cloudy 10 - - - -
17/11:00pm 26.2 SSE 8 11 1011.8 - 0.2 - Partly cloudy 10 - - - -
17/10:30pm 26.1 SSE 7 10 1012.0 - 0.2 - Partly cloudy 10 - - - -
17/10:00pm 26.3 SSE 7 10 1012.0 - 0.0 - Partly cloudy 10 - - - -
17/09:30pm 25.9 SE 10 16 1012.1 - 0.0 - Partly cloudy 9 - - - -
17/09:00pm 26.3 SE 12 18 1011.5 - 0.0 - Cloudy 8 - - - -
17/08:30pm 27.0 SE 10 14 1011.1 - 0.0 - Partly cloudy 10 - - - -
17/08:00pm 27.0 SE 12 17 1010.8 - 0.0 - Partly cloudy 10 - - - -
17/07:30pm 27.4 SE 11 17 1010.1 - 0.0 - Partly cloudy 10 - - - -
17/07:00pm 27.8 SE 13 17 1009.7 - 0.0 - Partly cloudy 10 - - - -
17/06:30pm 27.9 SE 12 17 1009.5 - 0.0 - Partly cloudy 10 - - - -
17/06:00pm 28.2 ESE 12 17 1009.4 - 0.0 - Mostly clear 10 - - - -
17/05:30pm 28.5 ESE 13 16 1009.0 - 0.0 - - 10 - - - -
17/05:00pm 29.1 ESE 16 21 1008.9 - 0.0 - Partly cloudy 10 - - - -
17/04:30pm 29.6 ESE 13 19 1008.9 - 0.0 - - 10 - - - -
17/04:00pm 29.6 ESE 14 20 1008.9 - 0.0 - Partly cloudy 10 - - - -
17/03:30pm 30.1 ESE 16 21 1008.9 - 0.0 - Partly cloudy 10 - - - -
17/03:00pm 30.6 E 14 22 1009.2 - 0.0 - Mostly clear 10 - - - -
17/02:30pm 29.8 ESE 17 25 1009.3 - 0.0 - Partly cloudy 10 - - - -
17/02:00pm 30.7 E 17 23 1009.7 - 0.0 - - 10 - - - -
17/01:30pm 31.1 ESE 15 23 1010.2 - 0.0 - - 10 - - - -
17/01:00pm 30.4 ESE 16 23 1010.5 - 0.0 - Partly cloudy 10 - - - -
17/12:30pm 30.3 E 18 25 1010.8 - 0.0 - - 10 - - - -
17/12:00pm 30.9 ESE 16 22 1011.3 - 0.0 - Mostly clear 10 - - - -
17/11:30am 30.2 ESE 16 22 1011.8 - 0.0 - - 10 - - - -
17/11:00am 29.9 ESE 18 24 1012.3 - 0.0 - Partly cloudy 10 - - - -
17/10:30am 29.6 ESE 17 25 1012.6 - 0.0 - Partly cloudy 10 - - - -
17/10:00am 29.4 ESE 17 22 1012.5 - 0.0 - Partly cloudy 10 - - - -
17/09:30am 29.3 ESE 17 23 1012.6 - 0.0 - Partly cloudy 10 - - - -
17/09:00am 29.1 ESE 15 21 1012.3 - 0.0 - Mostly clear 10 - - - -
17/08:30am 28.5 ESE 15 23 1012.2 - 0.0 - Partly cloudy 10 - - - -
17/08:00am 28.0 ESE 15 19 1012.0 - 0.0 - Partly cloudy 10 - - - -
17/07:30am 27.6 SE 12 19 1011.8 - 0.0 - Partly cloudy 10 - - - -
17/07:00am 27.2 ESE 12 18 1011.6 - 0.0 - Partly cloudy 10 - - - -
17/06:30am 27.1 ESE 14 20 1011.3 - 0.0 - Partly cloudy 10 - - - -
17/06:00am 26.9 SE 11 16 1011.0 - 0.0 - Partly cloudy 10 - - - -
17/05:30am 27.0 SE 12 18 1010.6 - 0.0 - Partly cloudy 10 - - - -
17/05:00am 27.0 SE 15 19 1010.2 - 0.0 - Partly cloudy 10 - - - -
17/04:30am 26.7 SE 12 17 1010.3 - 0.0 - Partly cloudy 10 - - - -
17/04:00am 26.9 SE 13 18 1010.2 - 0.0 - Partly cloudy 10 - - - -
17/03:30am 26.9 SE 14 21 1010.4 - 0.0 - Partly cloudy 10 - - - -
17/03:00am 27.2 SE 13 19 1010.7 - 0.0 - Mostly clear 10 - - - -
17/02:30am 27.0 SE 11 15 1011.0 - 0.0 - Partly cloudy 10 - - - -
17/02:00am 27.2 SE 13 21 1011.3 - 0.0 - Partly cloudy 10 - - - -
17/01:30am 27.3 SE 14 20 1011.6 - 0.0 - Partly cloudy 10 - - - -
17/01:00am 27.3 SE 13 18 1012.2 - 0.0 - Partly cloudy 10 - - - -
17/12:30am 27.4 SE 11 15 1012.7 - 0.0 - Partly cloudy 10 - - - -
17/12:00am 27.4 SE 11 15 1013.3 - 0.0 - Mostly cloudy 10 - - - -
 
Date/Time
EST
Temp

°C
Wind Pressure Rain
since 9am
mm
Weather Cloud Vis
km
Sea
Height
m
Swell
Dir
 
Speed
knots
Gust
knots
hPa Trend Height
m
Period
s
Dir
16/11:30pm 27.4 SE 14 23 1013.7 - 0.0 - Partly cloudy 10 - - - -
16/11:00pm 27.6 SE 13 18 1013.7 - 0.0 - Partly cloudy 10 - - - -
16/10:30pm 27.5 SE 12 18 1013.8 - 0.0 - - 10 - - - -
16/10:00pm 27.5 SE 12 17 1013.8 - 0.0 - - 10 - - - -
16/09:30pm 27.6 ESE 12 17 1013.6 - 0.0 - - 10 - - - -
16/09:00pm 27.6 SE 13 17 1013.3 - 0.0 - - 10 - - - -
16/08:30pm 27.3 SE 11 15 1012.9 - 0.0 - Partly cloudy 10 - - - -
16/08:00pm 27.7 SE 12 19 1012.6 - 0.0 - Partly cloudy 10 - - - -
16/07:30pm 27.7 SE 12 17 1012.1 - 0.0 - Partly cloudy 10 - - - -
16/07:00pm 27.9 SE 13 18 1011.9 - 0.0 - Partly cloudy 10 - - - -
16/06:30pm 28.1 SE 14 20 1011.7 - 0.0 - - 10 - - - -
16/06:00pm 28.6 ESE 14 20 1011.6 - 0.0 - Partly cloudy 10 - - - -
16/05:30pm 29.2 ESE 17 24 1011.5 - 0.0 - Partly cloudy 10 - - - -
16/05:00pm 29.6 ESE 17 25 1011.3 - 0.0 - Partly cloudy 10 - - - -
16/04:30pm 29.9 ESE 16 22 1011.0 - 0.0 - Partly cloudy 10 - - - -
16/04:00pm 30.1 SE 19 26 1011.0 - 0.0 - Partly cloudy 10 - - - -
16/03:30pm 29.5 ESE 17 23 1010.9 - 0.0 - Partly cloudy 10 - - - -
16/03:00pm 30.5 ESE 18 25 1011.0 - 0.0 - Cloudy 10 - - - -
16/02:30pm 30.7 ESE 17 23 1011.2 - 0.0 - Partly cloudy 10 - - - -
16/02:00pm 30.1 ESE 16 23 1011.5 - 0.0 - Partly cloudy 10 - - - -
16/01:30pm 30.1 ESE 18 26 1011.7 - 0.0 - Partly cloudy 10 - - - -
16/01:00pm 31.1 ESE 19 25 1012.1 - 0.0 - Partly cloudy 10 - - - -
16/12:30pm 30.5 ESE 16 20 1012.4 - 0.0 - Partly cloudy 10 - - - -
16/12:00pm 30.6 ESE 19 24 1012.6 - 0.0 - Cloudy 10 - - - -
16/11:30am 30.5 ESE 20 27 1013.0 - 0.0 - Partly cloudy 10 - - - -
16/11:00am 30.3 ESE 18 25 1013.4 - 0.0 - Partly cloudy 10 - - - -
16/10:30am 30.2 ESE 16 22 1013.5 - 0.0 - Partly cloudy 10 - - - -
16/10:00am 29.6 ESE 19 25 1013.6 - 0.0 - Partly cloudy 10 - - - -
16/09:30am 29.6 ESE 17 25 1013.8 - 0.0 - Partly cloudy 10 - - - -
16/09:00am 29.2 ESE 18 23 1013.8 - 0.0 - Cloudy 10 - - - -
16/08:30am 28.9 ESE 17 25 1013.7 - 0.0 - Partly cloudy 10 - - - -
16/08:00am 28.3 ESE 17 21 1013.5 - 0.0 - Partly cloudy 10 - - - -
16/07:30am 27.8 ESE 16 22 1013.1 - 0.0 - Partly cloudy 10 - - - -
16/07:00am 27.4 ESE 17 24 1012.9 - 0.0 - - 10 - - - -
16/06:30am 27.4 ESE 18 24 1012.5 - 0.0 - Partly cloudy 10 - - - -
16/06:00am 27.3 ESE 14 20 1012.6 - 0.0 - Partly cloudy 10 - - - -
16/05:30am 27.3 ESE 16 22 1012.7 - 0.0 - Partly cloudy 10 - - - -
16/05:20am 27.3 ESE 15 25 1012.7 - 0.0 - - 10 - - - -
16/05:00am 27.3 ESE 15 22 1012.6 - 0.0 - Partly cloudy 10 - - - -
16/04:30am 27.4 ESE 17 22 1012.4 - 0.0 - - 10 - - - -
16/04:00am 27.3 ESE 15 21 1012.7 - 0.0 - - 10 - - - -
16/03:30am 27.2 ESE 16 22 1012.7 - 0.0 - Partly cloudy 10 - - - -
16/03:00am 27.2 ESE 16 22 1012.6 - 0.0 - Mostly clear 10 - - - -
16/02:30am 27.3 SE 15 21 1012.8 - 0.0 - Partly cloudy 10 - - - -
16/02:00am 27.4 ESE 16 23 1013.2 - 0.0 - Partly cloudy 10 - - - -
16/01:30am 27.4 SE 16 21 1013.5 - 0.0 - - 10 - - - -
16/01:00am 27.6 SE 16 21 1014.0 - 0.0 - - 10 - - - -
16/12:30am 27.5 SE 14 19 1014.2 - 0.0 - - 10 - - - -
16/12:00am 27.6 ESE 14 20 1014.7 - 0.0 - Mostly clear 10 - - - -
 
Date/Time
EST
Temp

°C
Wind Pressure Rain
since 9am
mm
Weather Cloud Vis
km
Sea
Height
m
Swell
Dir
 
Speed
knots
Gust
knots
hPa Trend Height
m
Period
s
Dir
15/11:30pm 27.7 ESE 14 17 1015.0 - 0.0 - Partly cloudy 10 - - - -
15/11:00pm 27.9 ESE 16 24 1015.1 - 0.0 - Partly cloudy 10 - - - -
15/10:30pm 28.0 ESE 16 22 1014.9 - 0.0 - Partly cloudy 10 - - - -
15/10:09pm 28.0 SE 17 28 1015.0 - 0.0 - Partly cloudy 10 - - - -
15/10:00pm 27.9 SE 16 21 1014.9 - 0.0 - Partly cloudy 10 - - - -
15/09:30pm 27.9 SE 13 19 1014.7 - 0.0 - Partly cloudy 10 - - - -
15/09:00pm 27.8 SE 14 20 1014.3 - 0.0 - Mostly clear 10 - - - -
15/08:30pm 27.8 SE 16 22 1014.0 - 0.0 - - 10 - - - -
15/08:00pm 27.9 SE 14 20 1013.6 - 0.0 - - 10 - - - -
15/07:30pm 27.9 SE 14 19 1013.3 - 0.0 - - 10 - - - -
15/07:00pm 28.1 SE 18 25 1013.0 - 0.0 - Partly cloudy 10 - - - -
15/06:30pm 28.2 SE 16 25 1012.8 - 0.0 - Partly cloudy 10 - - - -
15/06:00pm 28.6 SE 14 23 1012.7 - 0.0 - Mostly clear 10 - - - -
15/05:30pm 29.2 ESE 17 23 1012.6 - 0.0 - Partly cloudy 10 - - - -

Other Formats:

Comma delimited format used in spreadsheet applications
http://www.bom.gov.au/fwo/IDQ60701/IDQ60701.94174.axf

JavaScript Object Notation format (JSON) in row-major order
http://www.bom.gov.au/fwo/IDQ60701/IDQ60701.94174.json